»·PEaware :: WAT380 KGJT-KDEN

WAT380 :: KGJT-KDEN

FLIGHT INFORMATION

Flight Status: Arrived
Operator:
Walker Air Transport
More flights by this operator :: More flights under this callsign
Pilot: Spencer M. (27733)
Aircraft: BOEING 737-600
(B736)
More flights by this aircraft type
Origin: KGJT Grand Junction Regl
United States
Destination: KDEN Denver Intl
United States
More flights between these airports :: More routes between these airports
Route: NOKXI1 HAQHY SSKII3
File this flight plan on PilotEdge
Remarks:
Altitude:
(Current/Filed)
23,000ft
Speed:
(Current/Filed)
450kts
Departed: 21-Sep-22 09:36 AM
Arrived: 21-Sep-22 10:14 AM
Distance/Time
Traveled:
184nm/0:37
Distance/Time
To Go:
Arrived

Flight Plot

Page will automatically refresh every two minutes.

Flight plan parsing failed; only flown route is shown


Map Options




Map Legend


Flown Route
Filed Route
Departure Airport
Arrival Airport
Navaid (VOR, NDB)
Fix

Horizontal Profiles

Position Reports

Time Latitude Longitude Heading Altitude Ground
Speed
21-Sep-22 09:10 39.123320 -108.529005 217 4835ft 0kts
21-Sep-22 09:11 39.123320 -108.529005 217 4835ft 0kts
21-Sep-22 09:12 39.123320 -108.529005 217 4835ft 0kts
21-Sep-22 09:13 39.123320 -108.529005 217 4835ft 0kts
21-Sep-22 09:14 39.123320 -108.529005 217 4835ft 0kts
21-Sep-22 09:15 39.123320 -108.529005 217 4835ft 0kts
21-Sep-22 09:16 39.123320 -108.529005 217 4835ft 0kts
21-Sep-22 09:17 39.123320 -108.529005 217 4835ft 0kts
21-Sep-22 09:18 39.123320 -108.529005 217 4835ft 0kts
21-Sep-22 09:19 39.123320 -108.529005 217 4835ft 0kts
21-Sep-22 09:20 39.123501 -108.528825 217 4837ft 2kts
21-Sep-22 09:21 39.123709 -108.528126 285 4840ft 2kts
21-Sep-22 09:22 39.123613 -108.527878 305 4841ft 0kts
21-Sep-22 09:23 39.123613 -108.527878 305 4841ft 0kts
21-Sep-22 09:24 39.123613 -108.527879 305 4841ft 0kts
21-Sep-22 09:25 39.124486 -108.527994 340 4844ft 7kts
21-Sep-22 09:26 39.127101 -108.532481 303 4837ft 18kts
21-Sep-22 09:27 39.129893 -108.537535 306 4826ft 21kts
21-Sep-22 09:28 39.133840 -108.544676 333 4803ft 10kts
21-Sep-22 09:29 39.134054 -108.544744 351 4803ft 0kts
21-Sep-22 09:30 39.134054 -108.544744 351 4803ft 0kts
21-Sep-22 09:31 39.134054 -108.544744 351 4803ft 0kts
21-Sep-22 09:32 39.134054 -108.544744 351 4803ft 0kts
21-Sep-22 09:33 39.134054 -108.544744 351 4803ft 0kts
21-Sep-22 09:34 39.134794 -108.544035 120 4804ft 4kts
21-Sep-22 09:35 39.118469 -108.514654 126 5047ft 176kts
21-Sep-22 09:36 39.081184 -108.451264 142 6396ft 271kts
21-Sep-22 09:37 39.006234 -108.428195 171 9440ft 289kts
21-Sep-22 09:38 38.926684 -108.391398 129 11557ft 336kts
21-Sep-22 09:39 38.885838 -108.280647 114 14287ft 353kts
21-Sep-22 09:40 38.847399 -108.161724 114 16805ft 367kts
21-Sep-22 09:41 38.832212 -108.029003 77 19096ft 392kts
21-Sep-22 09:42 38.861913 -107.890570 77 21106ft 411kts
21-Sep-22 09:43 38.888611 -107.744235 80 22990ft 428kts
21-Sep-22 09:44 38.911262 -107.591707 81 23290ft 440kts
21-Sep-22 09:45 38.936634 -107.434991 79 23329ft 458kts
21-Sep-22 09:46 38.964324 -107.272363 79 23371ft 465kts
21-Sep-22 09:47 38.992149 -107.109795 79 23414ft 465kts
21-Sep-22 09:48 39.019899 -106.946655 79 23471ft 465kts
21-Sep-22 09:49 39.047377 -106.783773 79 23493ft 465kts
21-Sep-22 09:50 39.074667 -106.620596 79 23493ft 465kts
21-Sep-22 09:51 39.101619 -106.457973 79 23493ft 465kts
21-Sep-22 09:52 39.128703 -106.293156 80 23493ft 464kts
21-Sep-22 09:53 39.163316 -106.131783 68 23497ft 467kts
21-Sep-22 09:54 39.216415 -105.978641 66 23458ft 467kts
21-Sep-22 09:55 39.270647 -105.825985 66 23396ft 466kts
21-Sep-22 09:56 39.324421 -105.675006 65 22503ft 442kts
21-Sep-22 09:57 39.374073 -105.538700 65 20787ft 394kts
21-Sep-22 09:58 39.413663 -105.413425 80 19006ft 355kts
21-Sep-22 09:59 39.417572 -105.291543 90 17566ft 344kts
21-Sep-22 10:00 39.418144 -105.174334 91 15728ft 323kts
21-Sep-22 10:01 39.418606 -105.061042 91 14173ft 304kts
21-Sep-22 10:02 39.418977 -104.955647 90 13061ft 267kts
21-Sep-22 10:03 39.426102 -104.863453 86 12175ft 250kts
21-Sep-22 10:04 39.433966 -104.775783 83 11168ft 235kts
21-Sep-22 10:05 39.460572 -104.697143 45 10993ft 241kts
21-Sep-22 10:06 39.524358 -104.669610 9 10999ft 244kts
21-Sep-22 10:07 39.591434 -104.663273 1 10218ft 228kts
21-Sep-22 10:08 39.652385 -104.662759 3 8978ft 205kts
21-Sep-22 10:09 39.706102 -104.662054 2 7863ft 183kts
21-Sep-22 10:10 39.751824 -104.661513 2 6959ft 135kts
21-Sep-22 10:11 39.788869 -104.661042 1 6222ft 133kts
21-Sep-22 10:12 39.825415 -104.660673 1 5500ft 129kts
21-Sep-22 10:13 39.846931 -104.660508 352 5402ft 33kts
21-Sep-22 10:14 39.851027 -104.662457 359 5410ft 6kts
21-Sep-22 10:15 39.855403 -104.662396 347 5424ft 16kts
21-Sep-22 10:16 39.856081 -104.666360 330 5424ft 11kts
21-Sep-22 10:17 39.857548 -104.666669 0 5425ft 0kts
21-Sep-22 10:18 39.857548 -104.666669 0 5425ft 0kts
21-Sep-22 10:19 39.857548 -104.666669 0 5425ft 0kts

Navigation Log

Ident Type
Flight plan parsing failed, navigation log unavailable